createdAt,value
2022-11-24T00:00:07.947Z,20.33
2022-11-24T00:01:32.484Z,21.45
2022-11-24T00:02:54.966Z,18.27
2022-11-24T00:04:19.764Z,17.58
2022-11-24T00:05:42.165Z,20.88
2022-11-24T00:07:05.793Z,19.35
2022-11-24T00:08:28.238Z,21.40
2022-11-24T00:09:51.612Z,19.88
2022-11-24T00:11:16.613Z,16.38
2022-11-24T00:12:39.976Z,20.70
2022-11-24T00:14:04.575Z,20.17
2022-11-24T00:15:26.922Z,19.85
2022-11-24T00:16:50.327Z,17.00
2022-11-24T00:18:12.713Z,20.85
2022-11-24T00:19:37.463Z,16.30
2022-11-24T00:20:59.837Z,20.13
2022-11-24T00:22:23.364Z,17.48
2022-11-24T00:23:46.962Z,18.73
2022-11-24T00:25:09.512Z,20.15
2022-11-24T00:26:34.531Z,19.08
2022-11-24T00:27:57.888Z,20.65
2022-11-24T00:29:21.262Z,15.45
2022-11-24T00:30:43.776Z,16.40
2022-11-24T00:32:07.217Z,19.75
2022-11-24T00:33:29.685Z,16.55
2022-11-24T00:34:54.451Z,14.68
2022-11-24T00:36:18.907Z,19.88
2022-11-24T00:37:41.268Z,13.13
2022-11-24T00:39:06.356Z,18.58
2022-11-24T00:40:34.716Z,17.70
2022-11-24T00:41:58.384Z,18.67
2022-11-24T00:43:20.750Z,19.15
2022-11-24T00:44:44.075Z,15.57
2022-11-24T00:46:06.958Z,19.55
2022-11-24T00:47:32.764Z,17.10
2022-11-24T00:48:55.559Z,13.60
2022-11-24T00:50:21.142Z,16.20
2022-11-24T00:51:44.590Z,13.77
2022-11-24T00:53:06.984Z,15.48
2022-11-24T00:54:30.919Z,17.38
2022-11-24T00:55:53.964Z,14.40
2022-11-24T00:57:17.366Z,12.60
2022-11-24T00:58:39.810Z,14.90
2022-11-24T01:00:03.239Z,20.25
2022-11-24T01:01:28.171Z,17.70
2022-11-24T01:02:50.633Z,19.08
2022-11-24T01:04:14.096Z,14.45
2022-11-24T01:05:38.575Z,17.63
2022-11-24T01:07:01.945Z,16.45
2022-11-24T01:08:25.387Z,9.13
2022-11-24T01:09:47.724Z,15.55
2022-11-24T01:11:12.695Z,14.93
2022-11-24T01:12:35.417Z,19.00
2022-11-24T01:14:00.031Z,18.42
2022-11-24T01:15:22.445Z,15.20
2022-11-24T01:16:45.898Z,18.80
2022-11-24T01:18:09.253Z,17.10
2022-11-24T01:19:31.739Z,16.33
2022-11-24T01:20:56.438Z,15.43
2022-11-24T01:22:19.813Z,19.85
2022-11-24T01:23:43.493Z,14.80
2022-11-24T01:25:07.685Z,14.23
2022-11-24T01:26:30.045Z,13.15
2022-11-24T01:27:53.486Z,14.70
2022-11-24T01:29:15.950Z,19.10
2022-11-24T01:30:39.367Z,18.92
2022-11-24T01:32:02.853Z,17.92
2022-11-24T01:33:25.412Z,9.73
2022-11-24T01:34:49.151Z,19.50
2022-11-24T01:36:12.997Z,16.83
2022-11-24T01:37:36.459Z,15.82
2022-11-24T01:38:58.815Z,17.85
2022-11-24T01:40:22.681Z,19.40
2022-11-24T01:41:46.062Z,20.00
2022-11-24T01:43:17.123Z,19.05
2022-11-24T01:44:42.252Z,21.83
2022-11-24T01:46:11.055Z,19.45
2022-11-24T01:47:39.828Z,21.55
2022-11-24T01:49:07.770Z,21.67
2022-11-24T01:50:30.295Z,19.80
2022-11-24T01:51:59.020Z,20.38
2022-11-24T01:53:23.000Z,21.52
2022-11-24T01:54:49.833Z,21.38
2022-11-24T01:56:12.801Z,20.02
2022-11-24T01:57:39.432Z,20.90
2022-11-24T01:59:04.105Z,19.20
2022-11-24T02:00:26.662Z,20.60
2022-11-24T02:01:51.527Z,18.02
2022-11-24T02:03:16.160Z,19.10
2022-11-24T02:04:39.975Z,19.25
2022-11-24T02:06:06.532Z,20.90
2022-11-24T02:07:31.498Z,20.92
2022-11-24T02:08:57.555Z,19.90
2022-11-24T02:10:20.959Z,20.33
2022-11-24T02:11:45.299Z,20.23
2022-11-24T02:13:07.651Z,20.17
2022-11-24T02:14:31.188Z,17.05
2022-11-24T02:15:54.211Z,20.48
2022-11-24T02:17:17.615Z,20.08
2022-11-24T02:18:41.529Z,22.13
2022-11-24T02:20:07.013Z,20.02
2022-11-24T02:21:29.589Z,20.83
2022-11-24T02:22:57.843Z,19.65
2022-11-24T02:24:26.660Z,17.85
2022-11-24T02:25:56.844Z,18.58
2022-11-24T02:27:21.662Z,19.67
2022-11-24T02:28:45.099Z,20.30
2022-11-24T02:30:08.209Z,18.73
2022-11-24T02:31:31.596Z,20.98
2022-11-24T02:32:55.004Z,19.23
2022-11-24T02:34:17.586Z,15.25
2022-11-24T02:35:41.078Z,17.95
2022-11-24T02:37:03.672Z,17.60
2022-11-24T02:38:32.239Z,19.50
2022-11-24T02:39:55.647Z,17.33
2022-11-24T02:41:20.616Z,16.40
2022-11-24T02:42:47.363Z,16.77
2022-11-24T02:44:10.074Z,15.10
2022-11-24T02:45:33.404Z,14.85
2022-11-24T02:47:04.552Z,15.25
2022-11-24T02:48:28.277Z,19.08
2022-11-24T02:49:51.864Z,20.20
2022-11-24T02:51:15.373Z,18.58
2022-11-24T02:52:38.883Z,18.08
2022-11-24T02:54:02.395Z,14.85
2022-11-24T02:55:24.984Z,18.35
2022-11-24T02:56:48.380Z,15.13
2022-11-24T02:58:14.793Z,17.85
2022-11-24T02:59:37.208Z,17.42
2022-11-24T03:01:00.736Z,18.02
2022-11-24T03:02:23.247Z,15.70
2022-11-24T03:03:46.706Z,16.25
2022-11-24T03:05:11.896Z,19.38
2022-11-24T03:06:35.276Z,18.13
2022-11-24T03:07:58.623Z,17.70
2022-11-24T03:09:22.010Z,18.17
2022-11-24T03:10:44.474Z,20.67
2022-11-24T03:12:08.302Z,20.60
2022-11-24T03:13:33.166Z,20.40
2022-11-24T03:14:56.532Z,20.23
2022-11-24T03:16:19.941Z,20.40
2022-11-24T03:17:42.384Z,19.10
2022-11-24T03:19:06.016Z,21.58
2022-11-24T03:20:29.515Z,20.38
2022-11-24T03:21:53.053Z,21.13
2022-11-24T03:23:15.471Z,20.98
2022-11-24T03:24:40.074Z,19.17
2022-11-24T03:26:10.568Z,18.50
2022-11-24T03:27:32.922Z,18.38
2022-11-24T03:28:58.103Z,20.13
2022-11-24T03:30:20.549Z,20.23
2022-11-24T03:31:43.956Z,19.85
2022-11-24T03:33:07.168Z,20.50
2022-11-24T03:34:30.718Z,20.02
2022-11-24T03:35:54.232Z,21.27
2022-11-24T03:37:17.727Z,19.88
2022-11-24T03:38:41.073Z,17.92
2022-11-24T03:40:04.769Z,12.77
2022-11-24T03:41:27.123Z,18.33
2022-11-24T03:42:50.488Z,17.73
2022-11-24T03:44:14.199Z,15.80
2022-11-24T03:45:46.161Z,17.45
2022-11-24T03:47:09.057Z,19.73
2022-11-24T03:48:32.552Z,20.27
2022-11-24T03:49:55.903Z,14.73
2022-11-24T03:51:18.371Z,15.15
2022-11-24T03:52:41.714Z,16.65
2022-11-24T03:54:04.238Z,19.40
2022-11-24T03:55:27.676Z,19.33
2022-11-24T03:56:51.103Z,18.80
2022-11-24T03:58:14.471Z,16.88
2022-11-24T03:59:39.240Z,15.90
2022-11-24T04:01:02.724Z,13.88
2022-11-24T04:02:25.271Z,17.02
2022-11-24T04:03:48.755Z,18.33
2022-11-24T04:05:11.295Z,16.50
2022-11-24T04:06:34.647Z,17.58
2022-11-24T04:07:58.406Z,14.90
2022-11-24T04:09:21.840Z,17.77
2022-11-24T04:10:44.605Z,15.60
2022-11-24T04:12:25.567Z,17.80
2022-11-24T04:13:51.690Z,16.65
2022-11-24T04:15:18.198Z,17.70
2022-11-24T04:16:40.586Z,17.45
2022-11-24T04:18:03.943Z,13.48
2022-11-24T04:19:26.462Z,14.63
2022-11-24T04:20:50.823Z,17.13
2022-11-24T04:22:13.243Z,16.30
2022-11-24T04:23:36.686Z,17.63
2022-11-24T04:24:59.117Z,12.85
2022-11-24T04:26:22.546Z,15.73
2022-11-24T04:27:46.236Z,17.15
2022-11-24T04:29:09.388Z,17.50
2022-11-24T04:30:34.191Z,17.23
2022-11-24T04:31:56.604Z,17.55
2022-11-24T04:33:20.011Z,13.75
2022-11-24T04:34:42.429Z,16.33
2022-11-24T04:36:06.355Z,16.02
2022-11-24T04:37:28.825Z,12.57
2022-11-24T04:39:24.291Z,14.85
2022-11-24T04:40:38.047Z,16.25
2022-11-24T04:42:00.488Z,16.77
2022-11-24T04:43:23.840Z,19.17
2022-11-24T04:44:46.198Z,19.63
2022-11-24T04:46:12.326Z,19.15
2022-11-24T04:47:34.767Z,17.98
2022-11-24T04:48:58.146Z,19.52
2022-11-24T04:50:21.898Z,12.88
2022-11-24T04:51:44.464Z,15.43
2022-11-24T04:53:08.009Z,15.55
2022-11-24T04:54:30.484Z,14.85
2022-11-24T04:55:53.980Z,15.55
2022-11-24T04:57:17.228Z,15.20
2022-11-24T04:58:40.608Z,16.13
2022-11-24T05:00:04.239Z,17.92
2022-11-24T05:01:29.338Z,15.05
2022-11-24T05:02:52.794Z,13.77
2022-11-24T05:04:16.222Z,16.05
2022-11-24T05:05:39.644Z,17.52
2022-11-24T05:07:02.028Z,15.38
2022-11-24T05:08:25.488Z,16.98
2022-11-24T05:10:06.555Z,16.05
2022-11-24T05:11:29.948Z,16.73
2022-11-24T05:12:55.664Z,16.98
2022-11-24T05:14:19.076Z,11.52
2022-11-24T05:15:42.056Z,15.82
2022-11-24T05:17:06.811Z,9.65
2022-11-24T05:18:29.216Z,14.77
2022-11-24T05:19:52.674Z,16.02
2022-11-24T05:21:15.350Z,15.30
2022-11-24T05:22:39.027Z,16.35
2022-11-24T05:24:02.665Z,14.43
2022-11-24T05:25:25.543Z,15.27
2022-11-24T05:26:48.900Z,14.70
2022-11-24T05:28:12.307Z,14.55
2022-11-24T05:29:35.660Z,14.45
2022-11-24T05:31:01.512Z,12.80
2022-11-24T05:32:25.532Z,15.75
2022-11-24T05:33:48.946Z,16.25
2022-11-24T05:35:11.794Z,16.35
2022-11-24T05:37:03.916Z,17.02
2022-11-24T05:38:27.356Z,13.52
2022-11-24T05:39:50.735Z,15.93
2022-11-24T05:41:14.159Z,15.60
2022-11-24T05:42:47.106Z,16.02
2022-11-24T05:44:11.385Z,15.70
2022-11-24T05:45:34.822Z,16.85
2022-11-24T05:46:57.250Z,16.50
2022-11-24T05:48:22.040Z,16.15
2022-11-24T05:49:44.509Z,15.75
2022-11-24T05:51:09.225Z,15.20
2022-11-24T05:52:31.974Z,14.32
2022-11-24T05:53:55.376Z,13.90
2022-11-24T05:55:20.902Z,14.27
2022-11-24T05:56:44.237Z,15.05
2022-11-24T05:58:09.081Z,14.48
2022-11-24T05:59:31.452Z,10.00
2022-11-24T06:00:54.874Z,14.55
2022-11-24T06:02:17.941Z,15.50
2022-11-24T06:03:42.699Z,13.93
2022-11-24T06:05:06.460Z,14.57
2022-11-24T06:06:30.127Z,15.95
2022-11-24T06:07:53.978Z,15.25
2022-11-24T06:09:17.604Z,14.60
2022-11-24T06:10:41.000Z,12.15
2022-11-24T06:12:03.598Z,12.88
2022-11-24T06:13:27.180Z,16.73
2022-11-24T06:14:50.735Z,13.65
2022-11-24T06:16:14.709Z,15.68
2022-11-24T06:17:38.334Z,12.77
2022-11-24T06:19:02.204Z,8.45
2022-11-24T06:20:32.314Z,13.10
2022-11-24T06:21:56.247Z,14.85
2022-11-24T06:23:19.615Z,14.15
2022-11-24T06:24:42.980Z,14.85
2022-11-24T06:26:06.524Z,13.73
2022-11-24T06:27:29.995Z,14.07
2022-11-24T06:28:53.443Z,12.20
2022-11-24T06:30:17.230Z,14.73
2022-11-24T06:31:39.676Z,13.55
2022-11-24T06:33:03.189Z,15.25
2022-11-24T06:34:28.026Z,15.10
2022-11-24T06:35:50.374Z,14.45
2022-11-24T06:37:13.797Z,15.65
2022-11-24T06:38:37.659Z,13.60
2022-11-24T06:40:01.064Z,15.80
2022-11-24T06:41:24.408Z,14.25
2022-11-24T06:42:52.569Z,14.25
2022-11-24T06:44:14.969Z,16.17
2022-11-24T06:45:38.452Z,15.90
2022-11-24T06:47:01.877Z,15.55
2022-11-24T06:48:25.377Z,15.02
2022-11-24T06:49:50.088Z,13.43
2022-11-24T06:51:14.194Z,14.70
2022-11-24T06:52:40.616Z,13.18
2022-11-24T06:54:07.084Z,13.95
2022-11-24T06:55:30.432Z,15.48
2022-11-24T06:56:57.872Z,13.30
2022-11-24T06:58:21.203Z,12.98
2022-11-24T06:59:44.618Z,14.88
2022-11-24T07:01:08.513Z,15.07
2022-11-24T07:02:32.205Z,12.20
2022-11-24T07:03:56.824Z,14.57
2022-11-24T07:05:21.552Z,14.27
2022-11-24T07:06:44.962Z,14.30
2022-11-24T07:08:07.509Z,15.32
2022-11-24T07:09:30.905Z,13.95
2022-11-24T07:10:54.447Z,13.43
2022-11-24T07:12:17.810Z,14.63
2022-11-24T07:13:41.219Z,13.18
2022-11-24T07:15:04.928Z,13.23
2022-11-24T07:16:29.208Z,13.35
2022-11-24T07:17:52.651Z,14.27
2022-11-24T07:19:21.591Z,14.45
2022-11-24T07:20:49.187Z,14.63
2022-11-24T07:22:12.562Z,14.23
2022-11-24T07:23:35.935Z,14.82
2022-11-24T07:24:59.464Z,15.52
2022-11-24T07:26:23.133Z,14.23
2022-11-24T07:27:46.572Z,15.07
2022-11-24T07:29:10.006Z,13.68
2022-11-24T07:30:33.551Z,14.13
2022-11-24T07:32:02.145Z,13.38
2022-11-24T07:33:28.522Z,14.48
2022-11-24T07:34:51.972Z,14.45
2022-11-24T07:36:16.889Z,14.38
2022-11-24T07:37:40.282Z,14.20
2022-11-24T07:39:03.631Z,13.50
2022-11-24T07:40:27.803Z,14.82
2022-11-24T07:41:51.205Z,13.88
2022-11-24T07:43:19.847Z,13.82
2022-11-24T07:44:43.609Z,13.18
2022-11-24T07:46:08.460Z,13.98
2022-11-24T07:47:31.916Z,15.55
2022-11-24T07:48:55.442Z,14.70
2022-11-24T07:50:19.298Z,15.07
2022-11-24T07:51:44.364Z,15.50
2022-11-24T07:53:06.812Z,13.57
2022-11-24T07:54:30.425Z,13.02
2022-11-24T07:55:56.945Z,13.90
2022-11-24T07:57:20.433Z,14.27
2022-11-24T07:58:48.289Z,12.23
2022-11-24T08:00:15.406Z,14.52
2022-11-24T08:01:39.238Z,13.90
2022-11-24T08:03:02.854Z,14.35
2022-11-24T08:04:28.053Z,14.68
2022-11-24T08:06:22.394Z,15.60
2022-11-24T08:07:40.656Z,11.70
2022-11-24T08:09:04.127Z,14.15
2022-11-24T08:10:27.534Z,14.07
2022-11-24T08:11:50.878Z,14.07
2022-11-24T08:13:14.238Z,14.25
2022-11-24T08:14:37.629Z,12.95
2022-11-24T08:16:01.136Z,14.48
2022-11-24T08:17:24.519Z,14.50
2022-11-24T08:18:51.606Z,15.15
2022-11-24T08:20:15.038Z,14.43
2022-11-24T08:21:38.437Z,14.35
2022-11-24T08:23:03.236Z,14.40
2022-11-24T08:24:26.769Z,13.90
2022-11-24T08:25:55.597Z,14.55
2022-11-24T08:27:20.996Z,13.63
2022-11-24T08:28:44.583Z,13.77
2022-11-24T08:30:09.508Z,12.68
2022-11-24T08:31:34.898Z,13.65
2022-11-24T08:33:01.229Z,12.30
2022-11-24T08:34:25.101Z,15.15
2022-11-24T08:35:48.483Z,14.13
2022-11-24T08:37:11.860Z,14.60
2022-11-24T08:38:36.734Z,13.23
2022-11-24T08:40:00.084Z,14.23
2022-11-24T08:41:23.503Z,13.85
2022-11-24T08:42:46.910Z,12.80
2022-11-24T08:44:10.715Z,13.60
2022-11-24T08:45:38.223Z,12.93
2022-11-24T08:47:04.477Z,12.98
2022-11-24T08:48:27.977Z,11.70
2022-11-24T08:49:51.432Z,12.63
2022-11-24T08:51:17.381Z,13.55
2022-11-24T08:52:40.777Z,13.95
2022-11-24T08:54:05.679Z,13.02
2022-11-24T08:55:29.098Z,12.80
2022-11-24T08:56:52.471Z,13.63
2022-11-24T08:58:16.544Z,12.32
2022-11-24T08:59:39.903Z,13.88
2022-11-24T09:01:07.134Z,13.63
2022-11-24T09:02:30.543Z,14.38
2022-11-24T09:03:54.125Z,13.90
2022-11-24T09:05:50.012Z,13.52
2022-11-24T09:07:01.161Z,13.45
2022-11-24T09:08:24.531Z,15.27
2022-11-24T09:09:49.285Z,14.38
2022-11-24T09:11:14.490Z,13.25
2022-11-24T09:12:37.962Z,13.52
2022-11-24T09:14:01.428Z,16.20
2022-11-24T09:15:24.842Z,14.00
2022-11-24T09:16:48.421Z,14.30
2022-11-24T09:18:11.862Z,14.13
2022-11-24T09:19:35.477Z,15.68
2022-11-24T09:21:08.405Z,14.00
2022-11-24T09:22:32.117Z,15.13
2022-11-24T09:23:56.268Z,14.27
2022-11-24T09:25:21.026Z,14.40
2022-11-24T09:26:47.703Z,13.25
2022-11-24T09:28:11.476Z,15.05
2022-11-24T09:29:35.157Z,13.75
2022-11-24T09:31:02.417Z,14.90
2022-11-24T09:32:25.900Z,15.73
2022-11-24T09:33:49.472Z,15.85
2022-11-24T09:35:12.893Z,14.50
2022-11-24T09:36:36.756Z,14.30
2022-11-24T09:38:00.111Z,15.13
2022-11-24T09:39:23.682Z,15.57
2022-11-24T09:40:48.415Z,13.13
2022-11-24T09:42:16.200Z,16.05
2022-11-24T09:43:45.194Z,14.27
2022-11-24T09:45:57.163Z,14.93
2022-11-24T09:47:17.846Z,14.32
2022-11-24T09:48:42.980Z,14.98
2022-11-24T09:50:07.803Z,14.07
2022-11-24T09:51:33.313Z,14.75
2022-11-24T09:53:03.574Z,15.27
2022-11-24T09:54:29.460Z,14.82
2022-11-24T09:55:56.264Z,15.95
2022-11-24T09:57:20.747Z,15.15
2022-11-24T09:58:46.517Z,14.10
2022-11-24T10:00:14.138Z,16.38
2022-11-24T10:01:38.876Z,15.25
2022-11-24T10:03:02.361Z,15.75
2022-11-24T10:04:28.380Z,13.95
2022-11-24T10:05:52.778Z,14.77
2022-11-24T10:07:23.377Z,15.18
2022-11-24T10:09:17.087Z,15.57
2022-11-24T10:10:48.806Z,14.10
2022-11-24T10:12:24.449Z,14.13
2022-11-24T10:14:11.878Z,16.33
2022-11-24T10:15:42.770Z,14.23
2022-11-24T10:17:12.606Z,14.18
2022-11-24T10:18:42.924Z,16.88
2022-11-24T10:20:10.158Z,15.27
2022-11-24T10:21:49.259Z,14.57
2022-11-24T10:23:23.152Z,15.40
2022-11-24T10:25:00.152Z,14.68
2022-11-24T10:26:31.824Z,16.30
2022-11-24T10:28:01.092Z,16.30
2022-11-24T10:29:29.360Z,16.27
2022-11-24T10:30:52.865Z,15.65
2022-11-24T10:32:20.349Z,15.88
2022-11-24T10:33:44.174Z,15.25
2022-11-24T10:35:17.624Z,15.27
2022-11-24T10:36:47.150Z,17.23
2022-11-24T10:38:28.179Z,15.85
2022-11-24T10:40:00.319Z,15.77
2022-11-24T10:41:26.475Z,16.20
2022-11-24T10:42:51.503Z,17.10
2022-11-24T10:44:16.504Z,16.02
2022-11-24T10:45:40.631Z,15.68
2022-11-24T10:47:04.678Z,17.52
2022-11-24T10:48:30.353Z,15.63
2022-11-24T10:49:57.003Z,15.77
2022-11-24T10:51:40.025Z,16.30
2022-11-24T10:53:10.849Z,15.70
2022-11-24T10:54:35.857Z,14.30
2022-11-24T10:56:01.360Z,16.17
2022-11-24T10:57:32.651Z,14.65
2022-11-24T10:58:56.098Z,15.20
2022-11-24T11:00:35.802Z,16.60
2022-11-24T11:01:59.417Z,14.45
2022-11-24T11:03:24.154Z,15.48
2022-11-24T11:04:48.438Z,15.93
2022-11-24T11:06:13.805Z,15.20
2022-11-24T11:07:37.453Z,15.00
2022-11-24T11:09:20.138Z,15.25
2022-11-24T11:10:44.829Z,15.00
2022-11-24T11:14:04.957Z,14.73
2022-11-24T11:15:32.067Z,14.57
2022-11-24T11:16:57.704Z,14.18
2022-11-24T11:18:21.794Z,14.20
2022-11-24T11:19:49.317Z,13.88
2022-11-24T11:21:28.246Z,14.27
2022-11-24T11:22:51.946Z,14.25
2022-11-24T11:24:17.568Z,14.63
2022-11-24T11:25:41.136Z,13.50
2022-11-24T11:27:06.832Z,15.38
2022-11-24T11:28:31.562Z,13.90
2022-11-24T11:31:41.157Z,14.90
2022-11-24T11:34:48.815Z,14.70
2022-11-24T11:36:12.757Z,15.25
2022-11-24T11:37:36.283Z,13.32
2022-11-24T11:39:00.672Z,14.90
2022-11-24T11:40:27.783Z,14.02
2022-11-24T11:41:53.508Z,13.75
2022-11-24T11:43:23.345Z,14.75
2022-11-24T11:44:49.951Z,14.38
2022-11-24T11:46:15.522Z,14.73
2022-11-24T11:47:42.670Z,15.57
2022-11-24T11:49:06.234Z,14.13
2022-11-24T11:51:07.046Z,14.70
2022-11-24T11:52:56.933Z,15.20
2022-11-24T11:54:28.143Z,14.52
2022-11-24T11:56:04.530Z,14.88
2022-11-24T11:57:33.146Z,14.32
2022-11-24T11:59:27.440Z,15.13
2022-11-24T12:00:57.388Z,14.20
2022-11-24T12:02:55.063Z,14.93
2022-11-24T12:04:25.507Z,14.80
2022-11-24T12:05:52.439Z,14.63
2022-11-24T12:07:30.578Z,15.05
2022-11-24T12:09:19.967Z,15.30
2022-11-24T12:10:49.431Z,13.63
2022-11-24T12:12:28.570Z,13.60
2022-11-24T12:14:02.929Z,13.63
2022-11-24T12:15:32.394Z,14.10
2022-11-24T12:17:03.367Z,14.55
2022-11-24T12:18:56.603Z,12.90
2022-11-24T12:20:27.760Z,14.38
2022-11-24T12:21:59.776Z,14.65
2022-11-24T12:23:29.942Z,14.63
2022-11-24T12:25:01.157Z,14.32
2022-11-24T12:26:29.170Z,14.57
2022-11-24T12:28:01.598Z,15.40
2022-11-24T12:29:46.482Z,15.48
2022-11-24T12:31:12.952Z,13.98
2022-11-24T12:33:09.767Z,13.80
2022-11-24T12:34:44.370Z,15.02
2022-11-24T12:36:17.655Z,15.77
2022-11-24T12:37:54.585Z,15.98
2022-11-24T12:39:25.950Z,16.63
2022-11-24T12:41:39.785Z,14.90
2022-11-24T12:42:58.614Z,13.65
2022-11-24T12:44:37.065Z,15.63
2022-11-24T12:46:06.046Z,15.75
2022-11-24T12:47:37.280Z,14.60
2022-11-24T12:49:09.277Z,14.43
2022-11-24T12:50:35.116Z,13.60
2022-11-24T12:52:02.708Z,14.90
2022-11-24T12:53:27.860Z,14.27
2022-11-24T12:54:51.286Z,14.55
2022-11-24T12:56:17.366Z,14.40
2022-11-24T12:57:43.390Z,15.13
2022-11-24T12:59:18.630Z,16.10
2022-11-24T13:00:54.380Z,13.43
2022-11-24T13:02:24.964Z,13.90
2022-11-24T13:04:01.799Z,14.57
2022-11-24T13:05:29.700Z,14.40
2022-11-24T13:06:55.042Z,13.93
2022-11-24T13:08:20.345Z,14.52
2022-11-24T13:10:16.775Z,14.52
2022-11-24T13:11:42.349Z,14.38
2022-11-24T13:13:06.814Z,15.45
2022-11-24T13:14:32.846Z,13.98
2022-11-24T13:16:53.488Z,15.35
2022-11-24T13:18:46.849Z,14.80
2022-11-24T13:20:16.983Z,12.77
2022-11-24T13:22:02.253Z,13.32
2022-11-24T13:23:28.690Z,14.05
2022-11-24T13:25:13.584Z,14.18
2022-11-24T13:26:47.257Z,14.32
2022-11-24T13:29:03.305Z,14.20
2022-11-24T13:30:56.627Z,14.23
2022-11-24T13:33:02.529Z,14.13
2022-11-24T13:35:02.612Z,13.32
2022-11-24T13:36:37.303Z,14.55
2022-11-24T13:38:00.707Z,13.25
2022-11-24T13:39:50.505Z,15.30
2022-11-24T13:42:07.363Z,14.20
2022-11-24T13:43:32.088Z,13.95
2022-11-24T13:44:55.640Z,20.13
2022-11-24T13:47:01.759Z,19.05
2022-11-24T13:49:01.764Z,16.98
2022-11-24T13:50:41.658Z,14.63
2022-11-24T13:52:52.973Z,17.25
2022-11-24T13:54:17.227Z,17.13
2022-11-24T13:55:41.697Z,16.05
2022-11-24T13:57:35.133Z,15.38
2022-11-24T13:59:02.065Z,15.15
2022-11-24T14:00:27.162Z,14.82
2022-11-24T14:01:58.493Z,13.82
2022-11-24T14:03:26.205Z,14.57
2022-11-24T14:04:49.744Z,14.93
2022-11-24T14:06:18.737Z,15.43
2022-11-24T14:07:42.680Z,16.05
2022-11-24T14:09:21.810Z,15.93
2022-11-24T14:10:45.310Z,16.30
2022-11-24T14:12:14.773Z,14.80
2022-11-24T14:13:38.235Z,16.05
2022-11-24T14:15:23.860Z,16.17
2022-11-24T14:16:47.270Z,15.00
2022-11-24T14:18:18.719Z,15.07
2022-11-24T14:19:42.502Z,14.55
2022-11-24T14:21:24.606Z,15.30
2022-11-24T14:22:48.079Z,15.27
2022-11-24T14:24:14.809Z,15.63
2022-11-24T14:25:38.240Z,14.75
2022-11-24T14:27:02.337Z,15.50
2022-11-24T14:28:27.845Z,15.20
2022-11-24T14:29:56.058Z,14.73
2022-11-24T14:31:27.185Z,15.30
2022-11-24T14:32:57.727Z,15.88
2022-11-24T14:34:23.145Z,15.30
2022-11-24T14:35:47.600Z,14.70
2022-11-24T14:37:11.354Z,15.50
2022-11-24T14:38:35.580Z,14.95
2022-11-24T14:39:58.972Z,16.08
2022-11-24T14:41:26.017Z,15.32
2022-11-24T14:42:51.782Z,15.07
2022-11-24T14:44:19.562Z,16.13
2022-11-24T14:45:52.977Z,15.68
2022-11-24T14:47:28.787Z,15.07
2022-11-24T14:48:54.921Z,15.25
2022-11-24T14:50:19.649Z,14.32
2022-11-24T14:51:45.381Z,14.43
2022-11-24T14:53:15.226Z,15.13
2022-11-24T14:54:47.186Z,14.38
2022-11-24T14:56:12.321Z,15.77
2022-11-24T14:57:37.253Z,15.68
2022-11-24T14:59:01.361Z,16.30
2022-11-24T15:00:28.993Z,16.15
2022-11-24T15:01:52.691Z,16.40
2022-11-24T15:03:21.362Z,15.60
2022-11-24T15:05:03.320Z,15.00
2022-11-24T15:06:27.488Z,15.75
2022-11-24T15:07:52.254Z,15.52
2022-11-24T15:09:26.257Z,15.90
2022-11-24T15:10:50.165Z,16.83
2022-11-24T15:12:24.094Z,16.83
2022-11-24T15:13:55.223Z,15.50
2022-11-24T15:15:21.237Z,15.02
2022-11-24T15:16:44.791Z,15.57
2022-11-24T15:18:24.647Z,15.15
2022-11-24T15:19:51.235Z,14.45
2022-11-24T15:21:19.149Z,15.65
2022-11-24T15:22:44.836Z,15.48
2022-11-24T15:24:16.872Z,15.98
2022-11-24T15:25:40.240Z,15.25
2022-11-24T15:27:03.643Z,15.23
2022-11-24T15:28:27.321Z,14.07
2022-11-24T15:29:50.765Z,14.30
2022-11-24T15:31:15.091Z,15.23
2022-11-24T15:32:38.520Z,13.68
2022-11-24T15:34:03.289Z,15.10
2022-11-24T15:35:27.924Z,15.07
2022-11-24T15:36:51.336Z,14.48
2022-11-24T15:38:15.249Z,15.40
2022-11-24T15:39:38.684Z,15.23
2022-11-24T15:41:02.765Z,14.70
2022-11-24T15:42:26.138Z,14.90
2022-11-24T15:43:49.688Z,15.52
2022-11-24T15:45:13.105Z,15.45
2022-11-24T15:46:39.560Z,13.73
2022-11-24T15:48:03.029Z,13.63
2022-11-24T15:49:27.777Z,15.50
2022-11-24T15:50:51.492Z,14.65
2022-11-24T15:52:18.297Z,13.57
2022-11-24T15:53:45.610Z,13.70
2022-11-24T15:55:14.126Z,14.00
2022-11-24T15:56:38.836Z,14.88
2022-11-24T15:58:02.192Z,14.38
2022-11-24T15:59:25.988Z,14.68
2022-11-24T16:00:50.794Z,15.38
2022-11-24T16:02:14.340Z,14.27
2022-11-24T16:03:52.956Z,15.05
2022-11-24T16:05:18.697Z,14.15
2022-11-24T16:06:42.504Z,14.75
2022-11-24T16:08:06.354Z,15.50
2022-11-24T16:09:29.678Z,13.95
2022-11-24T16:10:53.041Z,15.00
2022-11-24T16:12:16.411Z,14.77
2022-11-24T16:13:40.023Z,14.55
2022-11-24T16:15:03.644Z,14.88
2022-11-24T16:16:27.117Z,14.80
2022-11-24T16:17:50.544Z,15.25
2022-11-24T16:19:17.272Z,14.43
2022-11-24T16:20:41.977Z,15.65
2022-11-24T16:22:06.292Z,15.18
2022-11-24T16:23:29.632Z,15.15
2022-11-24T16:24:53.035Z,15.05
2022-11-24T16:26:16.658Z,15.18
2022-11-24T16:27:40.095Z,14.40
2022-11-24T16:29:03.528Z,15.52
2022-11-24T16:30:27.100Z,15.85
2022-11-24T16:31:50.705Z,15.68
2022-11-24T16:33:14.093Z,15.75
2022-11-24T16:34:37.604Z,15.13
2022-11-24T16:36:02.354Z,15.02
2022-11-24T16:37:25.746Z,15.98
2022-11-24T16:38:49.090Z,14.55
2022-11-24T16:40:13.345Z,16.58
2022-11-24T16:41:36.721Z,16.85
2022-11-24T16:43:00.136Z,16.50
2022-11-24T16:44:23.511Z,16.38
2022-11-24T16:45:46.073Z,17.23
2022-11-24T16:47:09.818Z,16.20
2022-11-24T16:48:37.335Z,16.95
2022-11-24T16:50:03.666Z,17.13
2022-11-24T16:51:34.495Z,17.60
2022-11-24T16:52:58.436Z,16.25
2022-11-24T16:54:21.968Z,16.75
2022-11-24T16:55:45.405Z,15.50
2022-11-24T16:57:14.412Z,17.35
2022-11-24T16:58:39.417Z,16.90
2022-11-24T17:00:02.929Z,16.02
2022-11-24T17:01:26.865Z,17.58
2022-11-24T17:02:50.365Z,17.38
2022-11-24T17:04:13.871Z,16.50
2022-11-24T17:05:37.221Z,17.38
2022-11-24T17:07:02.217Z,16.95
2022-11-24T17:08:25.724Z,17.23
2022-11-24T17:09:49.526Z,17.02
2022-11-24T17:11:14.702Z,17.05
2022-11-24T17:12:38.268Z,17.73
2022-11-24T17:14:01.614Z,17.70
2022-11-24T17:15:32.649Z,17.58
2022-11-24T17:16:58.367Z,17.63
2022-11-24T17:18:25.614Z,19.05
2022-11-24T17:19:49.157Z,17.85
2022-11-24T17:21:14.893Z,18.17
2022-11-24T17:22:39.673Z,17.50
2022-11-24T17:24:05.316Z,17.40
2022-11-24T17:25:28.778Z,17.67
2022-11-24T17:26:52.288Z,18.60
2022-11-24T17:28:15.852Z,19.23
2022-11-24T17:29:39.258Z,18.95
2022-11-24T17:31:08.562Z,18.17
2022-11-24T17:32:32.763Z,18.48
2022-11-24T17:33:57.966Z,18.60
2022-11-24T17:35:21.318Z,18.85
2022-11-24T17:36:45.954Z,19.55
2022-11-24T17:38:10.725Z,17.42
2022-11-24T17:39:34.095Z,18.23
2022-11-24T17:40:57.541Z,17.27
2022-11-24T17:42:20.892Z,17.48
2022-11-24T17:43:44.355Z,19.05
2022-11-24T17:45:08.661Z,17.20
2022-11-24T17:46:32.517Z,17.40
2022-11-24T17:47:54.996Z,17.33
2022-11-24T17:49:18.424Z,18.00
2022-11-24T17:50:41.856Z,19.00
2022-11-24T17:52:05.400Z,16.60
2022-11-24T17:53:30.221Z,17.17
2022-11-24T17:54:53.671Z,17.70
2022-11-24T17:56:18.520Z,15.95
2022-11-24T17:57:41.882Z,17.88
2022-11-24T17:59:05.429Z,18.70
2022-11-24T18:00:28.898Z,19.45
2022-11-24T18:01:52.362Z,17.40
2022-11-24T18:03:15.768Z,17.00
2022-11-24T18:04:39.168Z,18.92
2022-11-24T18:06:06.805Z,17.55
2022-11-24T18:07:30.222Z,17.63
2022-11-24T18:08:57.108Z,17.45
2022-11-24T18:10:20.533Z,18.05
2022-11-24T18:11:44.167Z,17.05
2022-11-24T18:13:07.563Z,16.92
2022-11-24T18:14:33.372Z,18.02
2022-11-24T18:15:58.761Z,18.50
2022-11-24T18:17:22.192Z,17.77
2022-11-24T18:18:50.123Z,17.00
2022-11-24T18:20:14.767Z,17.95
2022-11-24T18:21:38.998Z,18.00
2022-11-24T18:23:06.365Z,20.10
2022-11-24T18:24:31.222Z,16.50
2022-11-24T18:25:55.129Z,17.13
2022-11-24T18:27:18.508Z,17.48
2022-11-24T18:28:42.122Z,16.77
2022-11-24T18:30:06.669Z,18.10
2022-11-24T18:31:31.110Z,18.70
2022-11-24T18:32:54.607Z,17.30
2022-11-24T18:34:18.143Z,18.45
2022-11-24T18:35:41.556Z,16.65
2022-11-24T18:37:05.023Z,17.23
2022-11-24T18:38:28.945Z,17.27
2022-11-24T18:39:53.663Z,17.92